sensor_id;sensor_type;location;lat;lon;timestamp;temperature;humidity
65559;DHT22;52203;51.998;5.140;2022-09-20T00:01:12;5.71;118.99
65559;DHT22;52203;51.998;5.140;2022-09-20T00:03:41;5.68;118.99
65559;DHT22;52203;51.998;5.140;2022-09-20T00:06:10;5.72;118.99
65559;DHT22;52203;51.998;5.140;2022-09-20T00:08:36;5.74;118.99
65559;DHT22;52203;51.998;5.140;2022-09-20T00:11:05;5.74;118.99
65559;DHT22;52203;51.998;5.140;2022-09-20T00:13:32;5.80;118.99
65559;DHT22;52203;51.998;5.140;2022-09-20T00:15:58;5.83;118.99
65559;DHT22;52203;51.998;5.140;2022-09-20T00:18:25;5.87;118.99
65559;DHT22;52203;51.998;5.140;2022-09-20T00:20:51;5.95;118.99
65559;DHT22;52203;51.998;5.140;2022-09-20T00:23:17;6.00;118.99
65559;DHT22;52203;51.998;5.140;2022-09-20T00:25:43;6.06;118.99
65559;DHT22;52203;51.998;5.140;2022-09-20T00:28:09;6.07;118.99
65559;DHT22;52203;51.998;5.140;2022-09-20T00:30:35;6.08;118.99
65559;DHT22;52203;51.998;5.140;2022-09-20T00:33:01;6.09;118.99
65559;DHT22;52203;51.998;5.140;2022-09-20T00:35:28;6.09;118.99
65559;DHT22;52203;51.998;5.140;2022-09-20T00:37:54;6.07;118.99
65559;DHT22;52203;51.998;5.140;2022-09-20T00:40:21;6.05;118.99
65559;DHT22;52203;51.998;5.140;2022-09-20T00:42:48;6.05;118.99
65559;DHT22;52203;51.998;5.140;2022-09-20T00:45:21;6.05;118.99
65559;DHT22;52203;51.998;5.140;2022-09-20T00:53:05;6.04;118.99
65559;DHT22;52203;51.998;5.140;2022-09-20T00:55:34;5.98;118.99
65559;DHT22;52203;51.998;5.140;2022-09-20T00:58:01;5.96;118.99
65559;DHT22;52203;51.998;5.140;2022-09-20T01:00:27;5.89;118.99
65559;DHT22;52203;51.998;5.140;2022-09-20T01:02:56;5.78;118.99
65559;DHT22;52203;51.998;5.140;2022-09-20T01:05:23;5.71;118.99
65559;DHT22;52203;51.998;5.140;2022-09-20T01:07:49;5.65;118.99
65559;DHT22;52203;51.998;5.140;2022-09-20T01:10:16;5.64;118.99
65559;DHT22;52203;51.998;5.140;2022-09-20T01:12:42;5.70;118.99
65559;DHT22;52203;51.998;5.140;2022-09-20T01:15:10;5.77;118.99
65559;DHT22;52203;51.998;5.140;2022-09-20T01:17:39;5.81;118.99
65559;DHT22;52203;51.998;5.140;2022-09-20T01:22:40;5.92;118.99
65559;DHT22;52203;51.998;5.140;2022-09-20T01:27:58;5.95;118.99
65559;DHT22;52203;51.998;5.140;2022-09-20T01:30:26;5.95;118.99
65559;DHT22;52203;51.998;5.140;2022-09-20T01:33:15;5.96;118.99
65559;DHT22;52203;51.998;5.140;2022-09-20T01:35:46;5.97;118.99
65559;DHT22;52203;51.998;5.140;2022-09-20T01:38:46;6.04;118.99
65559;DHT22;52203;51.998;5.140;2022-09-20T01:41:23;6.08;118.99
65559;DHT22;52203;51.998;5.140;2022-09-20T01:44:20;6.08;118.99
65559;DHT22;52203;51.998;5.140;2022-09-20T01:46:50;6.12;118.99
65559;DHT22;52203;51.998;5.140;2022-09-20T02:00:26;6.00;118.99
65559;DHT22;52203;51.998;5.140;2022-09-20T02:06:07;5.95;118.99
65559;DHT22;52203;51.998;5.140;2022-09-20T02:11:28;5.98;118.99
65559;DHT22;52203;51.998;5.140;2022-09-20T02:14:25;5.94;118.99
65559;DHT22;52203;51.998;5.140;2022-09-20T02:17:10;5.98;118.99
65559;DHT22;52203;51.998;5.140;2022-09-20T02:20:11;5.98;118.99
65559;DHT22;52203;51.998;5.140;2022-09-20T02:28:36;6.07;118.99
65559;DHT22;52203;51.998;5.140;2022-09-20T02:37:04;5.97;118.99
65559;DHT22;52203;51.998;5.140;2022-09-20T02:42:40;5.95;118.99
65559;DHT22;52203;51.998;5.140;2022-09-20T02:46:23;5.94;118.99
65559;DHT22;52203;51.998;5.140;2022-09-20T02:48:21;5.94;118.99
65559;DHT22;52203;51.998;5.140;2022-09-20T02:53:48;5.94;118.99
65559;DHT22;52203;51.998;5.140;2022-09-20T02:56:40;5.99;118.99
65559;DHT22;52203;51.998;5.140;2022-09-20T03:02:25;5.99;118.99
65559;DHT22;52203;51.998;5.140;2022-09-20T03:05:22;5.99;118.99
65559;DHT22;52203;51.998;5.140;2022-09-20T03:08:02;5.98;118.99
65559;DHT22;52203;51.998;5.140;2022-09-20T03:10:53;6.01;118.99
65559;DHT22;52203;51.998;5.140;2022-09-20T03:13:47;5.99;118.99
65559;DHT22;52203;51.998;5.140;2022-09-20T03:16:20;5.97;118.99
65559;DHT22;52203;51.998;5.140;2022-09-20T03:27:40;5.87;118.99
65559;DHT22;52203;51.998;5.140;2022-09-20T03:30:33;5.82;118.99
65559;DHT22;52203;51.998;5.140;2022-09-20T03:33:20;5.71;118.99
65559;DHT22;52203;51.998;5.140;2022-09-20T03:57:56;5.43;118.99
65559;DHT22;52203;51.998;5.140;2022-09-20T04:03:48;5.59;118.99
65559;DHT22;52203;51.998;5.140;2022-09-20T04:09:22;5.63;118.99
65559;DHT22;52203;51.998;5.140;2022-09-20T04:20:45;5.76;118.99
65559;DHT22;52203;51.998;5.140;2022-09-20T04:26:14;5.78;118.99
65559;DHT22;52203;51.998;5.140;2022-09-20T04:29:12;5.84;118.99
65559;DHT22;52203;51.998;5.140;2022-09-20T04:35:00;5.89;118.99
65559;DHT22;52203;51.998;5.140;2022-09-20T04:37:46;5.89;118.99
65559;DHT22;52203;51.998;5.140;2022-09-20T04:40:22;5.91;118.99
65559;DHT22;52203;51.998;5.140;2022-09-20T04:48:50;5.82;118.99
65559;DHT22;52203;51.998;5.140;2022-09-20T04:57:02;5.82;118.99
65559;DHT22;52203;51.998;5.140;2022-09-20T05:06:02;5.92;118.99
65559;DHT22;52203;51.998;5.140;2022-09-20T05:19:48;5.70;118.99
65559;DHT22;52203;51.998;5.140;2022-09-20T05:30:44;5.93;118.99
65559;DHT22;52203;51.998;5.140;2022-09-20T05:38:25;5.90;118.99
65559;DHT22;52203;51.998;5.140;2022-09-20T05:41:11;5.87;118.99
65559;DHT22;52203;51.998;5.140;2022-09-20T05:43:57;5.83;118.99
65559;DHT22;52203;51.998;5.140;2022-09-20T05:57:41;5.59;118.99
65559;DHT22;52203;51.998;5.140;2022-09-20T06:00:14;5.59;118.99
65559;DHT22;52203;51.998;5.140;2022-09-20T06:07:54;5.48;118.99
65559;DHT22;52203;51.998;5.140;2022-09-20T06:15:49;5.60;118.99
65559;DHT22;52203;51.998;5.140;2022-09-20T06:18:32;5.72;118.99
65559;DHT22;52203;51.998;5.140;2022-09-20T06:23:59;5.82;118.99
65559;DHT22;52203;51.998;5.140;2022-09-20T06:26:28;5.90;118.99
65559;DHT22;52203;51.998;5.140;2022-09-20T06:28:59;5.95;118.99
65559;DHT22;52203;51.998;5.140;2022-09-20T06:31:26;5.98;118.99
65559;DHT22;52203;51.998;5.140;2022-09-20T06:34:03;6.01;118.99
65559;DHT22;52203;51.998;5.140;2022-09-20T06:36:31;6.06;118.99
65559;DHT22;52203;51.998;5.140;2022-09-20T06:42:19;6.14;118.99
65559;DHT22;52203;51.998;5.140;2022-09-20T06:44:45;6.24;118.99
65559;DHT22;52203;51.998;5.140;2022-09-20T06:47:12;6.30;118.99
65559;DHT22;52203;51.998;5.140;2022-09-20T06:49:38;6.34;118.99
65559;DHT22;52203;51.998;5.140;2022-09-20T06:52:09;6.39;118.99
65559;DHT22;52203;51.998;5.140;2022-09-20T06:54:35;6.41;118.99
65559;DHT22;52203;51.998;5.140;2022-09-20T06:57:03;6.42;118.99
65559;DHT22;52203;51.998;5.140;2022-09-20T06:59:31;6.45;118.99
65559;DHT22;52203;51.998;5.140;2022-09-20T07:01:57;6.55;118.99
65559;DHT22;52203;51.998;5.140;2022-09-20T07:04:23;6.66;118.99
65559;DHT22;52203;51.998;5.140;2022-09-20T07:06:49;6.76;118.99
65559;DHT22;52203;51.998;5.140;2022-09-20T07:09:15;6.86;118.99
65559;DHT22;52203;51.998;5.140;2022-09-20T07:11:41;7.00;118.99
65559;DHT22;52203;51.998;5.140;2022-09-20T07:14:07;7.00;118.99
65559;DHT22;52203;51.998;5.140;2022-09-20T07:16:32;7.00;118.99
65559;DHT22;52203;51.998;5.140;2022-09-20T07:19:00;7.05;118.99
65559;DHT22;52203;51.998;5.140;2022-09-20T07:21:25;7.10;118.99
65559;DHT22;52203;51.998;5.140;2022-09-20T07:23:51;7.35;118.99
65559;DHT22;52203;51.998;5.140;2022-09-20T07:26:25;7.40;118.99
65559;DHT22;52203;51.998;5.140;2022-09-20T07:28:51;7.69;118.99
65559;DHT22;52203;51.998;5.140;2022-09-20T07:31:19;7.43;118.99
65559;DHT22;52203;51.998;5.140;2022-09-20T07:33:44;7.65;118.99
65559;DHT22;52203;51.998;5.140;2022-09-20T07:36:11;7.81;118.99
65559;DHT22;52203;51.998;5.140;2022-09-20T07:38:40;7.96;118.99
65559;DHT22;52203;51.998;5.140;2022-09-20T07:41:06;7.88;118.99
65559;DHT22;52203;51.998;5.140;2022-09-20T07:43:33;7.88;118.99
65559;DHT22;52203;51.998;5.140;2022-09-20T07:45:58;7.97;118.99
65559;DHT22;52203;51.998;5.140;2022-09-20T07:48:34;8.00;118.99
65559;DHT22;52203;51.998;5.140;2022-09-20T07:51:07;8.07;118.99
65559;DHT22;52203;51.998;5.140;2022-09-20T07:53:33;8.03;118.99
65559;DHT22;52203;51.998;5.140;2022-09-20T07:55:59;8.13;118.99
65559;DHT22;52203;51.998;5.140;2022-09-20T07:58:26;8.15;118.99
65559;DHT22;52203;51.998;5.140;2022-09-20T08:00:58;8.16;118.99
65559;DHT22;52203;51.998;5.140;2022-09-20T08:03:24;8.12;118.99
65559;DHT22;52203;51.998;5.140;2022-09-20T08:05:51;8.24;118.99
65559;DHT22;52203;51.998;5.140;2022-09-20T08:08:18;8.33;118.99
65559;DHT22;52203;51.998;5.140;2022-09-20T08:10:45;8.35;118.99
65559;DHT22;52203;51.998;5.140;2022-09-20T08:13:14;8.56;118.99
65559;DHT22;52203;51.998;5.140;2022-09-20T08:15:41;8.58;118.99
65559;DHT22;52203;51.998;5.140;2022-09-20T08:18:08;8.56;118.99
65559;DHT22;52203;51.998;5.140;2022-09-20T08:20:37;8.68;118.99
65559;DHT22;52203;51.998;5.140;2022-09-20T08:23:04;8.73;118.99
65559;DHT22;52203;51.998;5.140;2022-09-20T08:25:30;8.61;118.99
65559;DHT22;52203;51.998;5.140;2022-09-20T08:27:56;8.71;118.99
65559;DHT22;52203;51.998;5.140;2022-09-20T08:30:21;8.74;118.99
65559;DHT22;52203;51.998;5.140;2022-09-20T08:32:48;8.64;118.99
65559;DHT22;52203;51.998;5.140;2022-09-20T08:35:14;8.87;118.99
65559;DHT22;52203;51.998;5.140;2022-09-20T08:37:40;8.77;118.99
65559;DHT22;52203;51.998;5.140;2022-09-20T08:40:10;8.90;118.99
65559;DHT22;52203;51.998;5.140;2022-09-20T08:42:37;9.05;118.99
65559;DHT22;52203;51.998;5.140;2022-09-20T08:45:14;9.09;118.99
65559;DHT22;52203;51.998;5.140;2022-09-20T08:48:06;9.04;118.99
65559;DHT22;52203;51.998;5.140;2022-09-20T08:50:36;9.12;118.99
65559;DHT22;52203;51.998;5.140;2022-09-20T08:53:08;9.24;118.99
65559;DHT22;52203;51.998;5.140;2022-09-20T08:55:39;9.25;118.99
65559;DHT22;52203;51.998;5.140;2022-09-20T08:58:09;9.32;118.99
65559;DHT22;52203;51.998;5.140;2022-09-20T09:00:37;9.47;118.99
65559;DHT22;52203;51.998;5.140;2022-09-20T09:03:06;9.65;118.99
65559;DHT22;52203;51.998;5.140;2022-09-20T09:05:44;9.60;118.99
65559;DHT22;52203;51.998;5.140;2022-09-20T09:08:16;9.57;118.99
65559;DHT22;52203;51.998;5.140;2022-09-20T09:16:25;9.67;118.99
65559;DHT22;52203;51.998;5.140;2022-09-20T09:18:51;9.33;118.99
65559;DHT22;52203;51.998;5.140;2022-09-20T09:21:25;9.46;118.99
65559;DHT22;52203;51.998;5.140;2022-09-20T09:24:06;9.38;118.99
65559;DHT22;52203;51.998;5.140;2022-09-20T09:26:36;9.42;118.99
65559;DHT22;52203;51.998;5.140;2022-09-20T09:29:22;9.83;118.99
65559;DHT22;52203;51.998;5.140;2022-09-20T09:31:52;9.70;118.99
65559;DHT22;52203;51.998;5.140;2022-09-20T09:34:23;9.97;118.99
65559;DHT22;52203;51.998;5.140;2022-09-20T09:36:49;10.06;118.99
65559;DHT22;52203;51.998;5.140;2022-09-20T09:39:26;10.34;118.99
65559;DHT22;52203;51.998;5.140;2022-09-20T09:41:52;10.43;118.99
65559;DHT22;52203;51.998;5.140;2022-09-20T09:44:27;10.62;118.99
65559;DHT22;52203;51.998;5.140;2022-09-20T09:46:53;10.53;118.99
65559;DHT22;52203;51.998;5.140;2022-09-20T09:49:27;10.84;118.99
65559;DHT22;52203;51.998;5.140;2022-09-20T09:52:11;10.68;118.99
65559;DHT22;52203;51.998;5.140;2022-09-20T09:54:39;10.23;118.99
65559;DHT22;52203;51.998;5.140;2022-09-20T10:05:05;9.96;118.99
65559;DHT22;52203;51.998;5.140;2022-09-20T10:10:38;9.89;118.99
65559;DHT22;52203;51.998;5.140;2022-09-20T10:16:28;10.18;118.99
65559;DHT22;52203;51.998;5.140;2022-09-20T10:18:59;10.00;118.99
65559;DHT22;52203;51.998;5.140;2022-09-20T10:21:47;10.28;118.99
65559;DHT22;52203;51.998;5.140;2022-09-20T10:30:11;10.34;118.99
65559;DHT22;52203;51.998;5.140;2022-09-20T10:32:46;10.56;118.99
65559;DHT22;52203;51.998;5.140;2022-09-20T10:38:24;10.36;118.99
65559;DHT22;52203;51.998;5.140;2022-09-20T10:41:10;10.96;118.99
65559;DHT22;52203;51.998;5.140;2022-09-20T10:46:54;11.36;118.99
65559;DHT22;52203;51.998;5.140;2022-09-20T11:00:49;12.06;118.99
65559;DHT22;52203;51.998;5.140;2022-09-20T11:08:59;13.22;118.99
65559;DHT22;52203;51.998;5.140;2022-09-20T11:11:33;13.49;118.99
65559;DHT22;52203;51.998;5.140;2022-09-20T11:14:05;13.35;118.99
65559;DHT22;52203;51.998;5.140;2022-09-20T11:22:17;14.72;118.99
65559;DHT22;52203;51.998;5.140;2022-09-20T11:24:59;15.09;118.99
65559;DHT22;52203;51.998;5.140;2022-09-20T11:27:40;15.58;118.99
65559;DHT22;52203;51.998;5.140;2022-09-20T11:30:18;16.42;118.99
65559;DHT22;52203;51.998;5.140;2022-09-20T11:32:50;15.78;118.99
65559;DHT22;52203;51.998;5.140;2022-09-20T11:35:31;16.13;118.99
65559;DHT22;52203;51.998;5.140;2022-09-20T11:38:16;15.57;118.99
65559;DHT22;52203;51.998;5.140;2022-09-20T11:40:55;14.93;118.99
65559;DHT22;52203;51.998;5.140;2022-09-20T11:43:22;14.57;118.99
65559;DHT22;52203;51.998;5.140;2022-09-20T11:45:57;14.63;118.99
65559;DHT22;52203;51.998;5.140;2022-09-20T11:48:25;14.47;118.99
65559;DHT22;52203;51.998;5.140;2022-09-20T11:53:46;14.06;118.99
65559;DHT22;52203;51.998;5.140;2022-09-20T11:58:52;14.12;118.99
65559;DHT22;52203;51.998;5.140;2022-09-20T12:01:31;13.96;118.99
65559;DHT22;52203;51.998;5.140;2022-09-20T12:04:03;14.34;118.99
65559;DHT22;52203;51.998;5.140;2022-09-20T12:06:33;13.22;118.99
65559;DHT22;52203;51.998;5.140;2022-09-20T12:09:13;13.93;118.99
65559;DHT22;52203;51.998;5.140;2022-09-20T12:11:45;13.77;118.99
65559;DHT22;52203;51.998;5.140;2022-09-20T12:14:21;13.76;118.99
65559;DHT22;52203;51.998;5.140;2022-09-20T12:16:48;14.42;118.99
65559;DHT22;52203;51.998;5.140;2022-09-20T12:24:29;15.90;118.99
65559;DHT22;52203;51.998;5.140;2022-09-20T12:26:59;15.86;118.99
65559;DHT22;52203;51.998;5.140;2022-09-20T12:32:32;15.22;118.99
65559;DHT22;52203;51.998;5.140;2022-09-20T12:34:57;14.91;118.99
65559;DHT22;52203;51.998;5.140;2022-09-20T12:37:24;14.21;118.99
65559;DHT22;52203;51.998;5.140;2022-09-20T12:39:52;14.53;118.99
65559;DHT22;52203;51.998;5.140;2022-09-20T12:42:31;13.97;118.99
65559;DHT22;52203;51.998;5.140;2022-09-20T12:44:58;14.06;118.99
65559;DHT22;52203;51.998;5.140;2022-09-20T12:47:35;14.01;118.99
65559;DHT22;52203;51.998;5.140;2022-09-20T12:50:12;13.71;118.99
65559;DHT22;52203;51.998;5.140;2022-09-20T12:52:57;13.67;118.99
65559;DHT22;52203;51.998;5.140;2022-09-20T12:58:07;14.68;118.99
65559;DHT22;52203;51.998;5.140;2022-09-20T13:01:25;14.33;118.99
65559;DHT22;52203;51.998;5.140;2022-09-20T13:03:40;14.93;118.99
65559;DHT22;52203;51.998;5.140;2022-09-20T13:11:46;14.88;118.99
65559;DHT22;52203;51.998;5.140;2022-09-20T13:14:26;14.05;118.99
65559;DHT22;52203;51.998;5.140;2022-09-20T13:17:03;13.20;118.99
65559;DHT22;52203;51.998;5.140;2022-09-20T13:19:33;13.98;118.99
65559;DHT22;52203;51.998;5.140;2022-09-20T13:24:52;13.39;118.99
65559;DHT22;52203;51.998;5.140;2022-09-20T13:27:34;12.95;118.99
65559;DHT22;52203;51.998;5.140;2022-09-20T13:30:13;12.77;118.99
65559;DHT22;52203;51.998;5.140;2022-09-20T13:32:45;12.61;118.99
65559;DHT22;52203;51.998;5.140;2022-09-20T13:35:20;12.03;118.99
65559;DHT22;52203;51.998;5.140;2022-09-20T13:37:54;12.03;118.99
65559;DHT22;52203;51.998;5.140;2022-09-20T13:40:33;11.84;118.99
65559;DHT22;52203;51.998;5.140;2022-09-20T13:45:41;11.47;118.99
65559;DHT22;52203;51.998;5.140;2022-09-20T13:48:07;11.38;118.99
65559;DHT22;52203;51.998;5.140;2022-09-20T13:50:34;11.46;118.99
65559;DHT22;52203;51.998;5.140;2022-09-20T13:53:12;11.48;118.99
65559;DHT22;52203;51.998;5.140;2022-09-20T13:55:39;11.33;118.99
65559;DHT22;52203;51.998;5.140;2022-09-20T13:58:21;11.39;118.99
65559;DHT22;52203;51.998;5.140;2022-09-20T14:03:21;11.48;118.99
65559;DHT22;52203;51.998;5.140;2022-09-20T14:05:55;11.76;118.99
65559;DHT22;52203;51.998;5.140;2022-09-20T14:08:26;11.82;118.99
65559;DHT22;52203;51.998;5.140;2022-09-20T14:13:39;12.15;118.99
65559;DHT22;52203;51.998;5.140;2022-09-20T14:16:07;12.01;118.99
65559;DHT22;52203;51.998;5.140;2022-09-20T14:18:33;11.99;118.99
65559;DHT22;52203;51.998;5.140;2022-09-20T14:21:00;11.79;118.99
65559;DHT22;52203;51.998;5.140;2022-09-20T14:23:28;11.75;118.99
65559;DHT22;52203;51.998;5.140;2022-09-20T14:28:42;12.69;118.99
65559;DHT22;52203;51.998;5.140;2022-09-20T14:31:30;13.34;118.99
65559;DHT22;52203;51.998;5.140;2022-09-20T14:34:01;14.29;118.99
65559;DHT22;52203;51.998;5.140;2022-09-20T14:36:29;14.65;118.99
65559;DHT22;52203;51.998;5.140;2022-09-20T14:39:02;14.58;118.99
65559;DHT22;52203;51.998;5.140;2022-09-20T14:41:38;15.71;118.99
65559;DHT22;52203;51.998;5.140;2022-09-20T14:44:12;16.31;118.99
65559;DHT22;52203;51.998;5.140;2022-09-20T14:46:42;14.58;118.99
65559;DHT22;52203;51.998;5.140;2022-09-20T14:51:48;14.94;118.99
65559;DHT22;52203;51.998;5.140;2022-09-20T14:54:23;14.25;118.99
65559;DHT22;52203;51.998;5.140;2022-09-20T14:56:50;15.45;118.99
65559;DHT22;52203;51.998;5.140;2022-09-20T15:02:12;16.06;118.99
65559;DHT22;52203;51.998;5.140;2022-09-20T15:04:39;15.89;118.99
65559;DHT22;52203;51.998;5.140;2022-09-20T15:07:08;14.35;118.99
65559;DHT22;52203;51.998;5.140;2022-09-20T15:09:37;13.58;118.99
65559;DHT22;52203;51.998;5.140;2022-09-20T15:14:38;12.89;118.99
65559;DHT22;52203;51.998;5.140;2022-09-20T15:17:10;11.82;118.99
65559;DHT22;52203;51.998;5.140;2022-09-20T15:19:37;12.17;118.99
65559;DHT22;52203;51.998;5.140;2022-09-20T15:22:03;12.11;118.99
65559;DHT22;52203;51.998;5.140;2022-09-20T15:24:28;11.85;118.99
65559;DHT22;52203;51.998;5.140;2022-09-20T15:26:54;11.79;118.99
65559;DHT22;52203;51.998;5.140;2022-09-20T15:29:20;11.82;118.99
65559;DHT22;52203;51.998;5.140;2022-09-20T15:31:47;11.60;118.99
65559;DHT22;52203;51.998;5.140;2022-09-20T15:34:13;11.53;118.99
65559;DHT22;52203;51.998;5.140;2022-09-20T15:36:40;11.45;118.99
65559;DHT22;52203;51.998;5.140;2022-09-20T15:39:06;11.33;118.99
65559;DHT22;52203;51.998;5.140;2022-09-20T15:41:31;11.41;118.99
65559;DHT22;52203;51.998;5.140;2022-09-20T15:43:58;11.34;118.99
65559;DHT22;52203;51.998;5.140;2022-09-20T15:46:24;11.26;118.99
65559;DHT22;52203;51.998;5.140;2022-09-20T15:48:52;11.05;118.99
65559;DHT22;52203;51.998;5.140;2022-09-20T15:51:18;11.12;118.99
65559;DHT22;52203;51.998;5.140;2022-09-20T15:53:56;10.73;118.99
65559;DHT22;52203;51.998;5.140;2022-09-20T15:56:24;10.78;118.99
65559;DHT22;52203;51.998;5.140;2022-09-20T15:59:02;11.12;118.99
65559;DHT22;52203;51.998;5.140;2022-09-20T16:01:48;11.46;118.99
65559;DHT22;52203;51.998;5.140;2022-09-20T16:04:15;11.58;118.99
65559;DHT22;52203;51.998;5.140;2022-09-20T16:06:44;11.87;118.99
65559;DHT22;52203;51.998;5.140;2022-09-20T16:09:10;12.04;118.99
65559;DHT22;52203;51.998;5.140;2022-09-20T16:11:37;11.84;118.99
65559;DHT22;52203;51.998;5.140;2022-09-20T16:14:03;11.62;118.99
65559;DHT22;52203;51.998;5.140;2022-09-20T16:16:29;11.93;118.99
65559;DHT22;52203;51.998;5.140;2022-09-20T16:18:55;11.91;118.99
65559;DHT22;52203;51.998;5.140;2022-09-20T16:21:40;11.92;118.99
65559;DHT22;52203;51.998;5.140;2022-09-20T16:24:07;11.75;118.99
65559;DHT22;52203;51.998;5.140;2022-09-20T16:26:34;11.64;118.99
65559;DHT22;52203;51.998;5.140;2022-09-20T16:29:00;11.57;118.99
65559;DHT22;52203;51.998;5.140;2022-09-20T16:31:36;11.03;118.99
65559;DHT22;52203;51.998;5.140;2022-09-20T16:36:41;10.97;118.99
65559;DHT22;52203;51.998;5.140;2022-09-20T16:39:08;10.72;118.99
65559;DHT22;52203;51.998;5.140;2022-09-20T16:41:34;10.48;118.99
65559;DHT22;52203;51.998;5.140;2022-09-20T16:44:00;10.62;118.99
65559;DHT22;52203;51.998;5.140;2022-09-20T16:46:26;10.55;118.99
65559;DHT22;52203;51.998;5.140;2022-09-20T16:48:53;10.43;118.99
65559;DHT22;52203;51.998;5.140;2022-09-20T16:51:20;10.33;118.99
65559;DHT22;52203;51.998;5.140;2022-09-20T16:53:48;10.16;118.99
65559;DHT22;52203;51.998;5.140;2022-09-20T16:56:18;10.03;118.99
65559;DHT22;52203;51.998;5.140;2022-09-20T16:58:45;9.99;118.99
65559;DHT22;52203;51.998;5.140;2022-09-20T17:01:11;9.82;118.99
65559;DHT22;52203;51.998;5.140;2022-09-20T17:03:37;9.84;118.99
65559;DHT22;52203;51.998;5.140;2022-09-20T17:06:06;9.80;118.99
65559;DHT22;52203;51.998;5.140;2022-09-20T17:08:33;9.62;118.99
65559;DHT22;52203;51.998;5.140;2022-09-20T17:11:06;9.57;118.99
65559;DHT22;52203;51.998;5.140;2022-09-20T17:13:34;9.41;118.99
65559;DHT22;52203;51.998;5.140;2022-09-20T17:16:09;9.18;118.99
65559;DHT22;52203;51.998;5.140;2022-09-20T17:18:35;9.11;118.99
65559;DHT22;52203;51.998;5.140;2022-09-20T17:21:05;8.89;118.99
65559;DHT22;52203;51.998;5.140;2022-09-20T17:23:32;8.68;118.99
65559;DHT22;52203;51.998;5.140;2022-09-20T17:26:19;8.50;118.99
65559;DHT22;52203;51.998;5.140;2022-09-20T17:28:48;8.17;118.99
65559;DHT22;52203;51.998;5.140;2022-09-20T17:31:27;7.90;118.99
65559;DHT22;52203;51.998;5.140;2022-09-20T17:33:56;7.76;118.99
65559;DHT22;52203;51.998;5.140;2022-09-20T17:36:26;7.56;118.99
65559;DHT22;52203;51.998;5.140;2022-09-20T17:38:54;7.40;118.99
65559;DHT22;52203;51.998;5.140;2022-09-20T17:41:21;7.32;118.99
65559;DHT22;52203;51.998;5.140;2022-09-20T17:43:48;7.15;118.99
65559;DHT22;52203;51.998;5.140;2022-09-20T17:46:26;7.10;118.99
65559;DHT22;52203;51.998;5.140;2022-09-20T17:48:59;6.96;118.99
65559;DHT22;52203;51.998;5.140;2022-09-20T17:51:29;6.91;118.99
65559;DHT22;52203;51.998;5.140;2022-09-20T17:53:55;6.85;118.99
65559;DHT22;52203;51.998;5.140;2022-09-20T17:56:21;6.74;118.99
65559;DHT22;52203;51.998;5.140;2022-09-20T17:58:57;6.63;118.99
65559;DHT22;52203;51.998;5.140;2022-09-20T18:01:23;6.73;118.99
65559;DHT22;52203;51.998;5.140;2022-09-20T18:03:50;6.76;118.99
65559;DHT22;52203;51.998;5.140;2022-09-20T18:06:21;6.78;118.99
65559;DHT22;52203;51.998;5.140;2022-09-20T18:08:55;6.78;118.99
65559;DHT22;52203;51.998;5.140;2022-09-20T18:11:26;6.90;118.99
65559;DHT22;52203;51.998;5.140;2022-09-20T18:13:52;6.87;118.99
65559;DHT22;52203;51.998;5.140;2022-09-20T18:16:17;6.83;118.99
65559;DHT22;52203;51.998;5.140;2022-09-20T18:18:44;6.93;118.99
65559;DHT22;52203;51.998;5.140;2022-09-20T18:21:12;6.97;118.99
65559;DHT22;52203;51.998;5.140;2022-09-20T18:23:39;6.97;118.99
65559;DHT22;52203;51.998;5.140;2022-09-20T18:26:09;7.10;118.99
65559;DHT22;52203;51.998;5.140;2022-09-20T18:28:51;7.07;118.99
65559;DHT22;52203;51.998;5.140;2022-09-20T18:31:17;7.11;118.99
65559;DHT22;52203;51.998;5.140;2022-09-20T18:33:43;7.07;118.99
65559;DHT22;52203;51.998;5.140;2022-09-20T18:36:09;7.12;118.99
65559;DHT22;52203;51.998;5.140;2022-09-20T18:38:35;7.13;118.99
65559;DHT22;52203;51.998;5.140;2022-09-20T18:41:02;7.14;118.99
65559;DHT22;52203;51.998;5.140;2022-09-20T18:43:31;7.13;118.99
65559;DHT22;52203;51.998;5.140;2022-09-20T18:45:57;7.13;118.99
65559;DHT22;52203;51.998;5.140;2022-09-20T18:48:31;7.13;118.99
65559;DHT22;52203;51.998;5.140;2022-09-20T18:51:03;7.14;118.99
65559;DHT22;52203;51.998;5.140;2022-09-20T18:53:34;7.12;118.99
65559;DHT22;52203;51.998;5.140;2022-09-20T18:56:26;7.05;118.99
65559;DHT22;52203;51.998;5.140;2022-09-20T18:59:03;7.08;118.99
65559;DHT22;52203;51.998;5.140;2022-09-20T19:05:09;6.96;118.99
65559;DHT22;52203;51.998;5.140;2022-09-20T19:07:52;6.97;118.99
65559;DHT22;52203;51.998;5.140;2022-09-20T19:10:41;6.95;118.99
65559;DHT22;52203;51.998;5.140;2022-09-20T19:13:19;6.87;118.99
65559;DHT22;52203;51.998;5.140;2022-09-20T19:18:40;6.82;118.99
65559;DHT22;52203;51.998;5.140;2022-09-20T19:23:44;6.71;118.99
65559;DHT22;52203;51.998;5.140;2022-09-20T19:26:27;6.74;118.99
65559;DHT22;52203;51.998;5.140;2022-09-20T19:28:55;6.67;118.99
65559;DHT22;52203;51.998;5.140;2022-09-20T19:31:26;6.65;118.99
65559;DHT22;52203;51.998;5.140;2022-09-20T19:33:54;6.53;118.99
65559;DHT22;52203;51.998;5.140;2022-09-20T19:36:21;6.56;118.99
65559;DHT22;52203;51.998;5.140;2022-09-20T19:41:59;6.50;118.99
65559;DHT22;52203;51.998;5.140;2022-09-20T19:44:46;6.46;118.99
65559;DHT22;52203;51.998;5.140;2022-09-20T19:50:19;6.46;118.99
65559;DHT22;52203;51.998;5.140;2022-09-20T19:52:52;6.51;118.99
65559;DHT22;52203;51.998;5.140;2022-09-20T19:55:18;6.53;118.99
65559;DHT22;52203;51.998;5.140;2022-09-20T19:57:45;6.55;118.99
65559;DHT22;52203;51.998;5.140;2022-09-20T20:00:19;6.54;118.99
65559;DHT22;52203;51.998;5.140;2022-09-20T20:02:44;6.56;118.99
65559;DHT22;52203;51.998;5.140;2022-09-20T20:05:17;6.55;118.99
65559;DHT22;52203;51.998;5.140;2022-09-20T20:16:23;6.58;118.99
65559;DHT22;52203;51.998;5.140;2022-09-20T20:24:51;6.57;118.99
65559;DHT22;52203;51.998;5.140;2022-09-20T20:27:18;6.58;118.99
65559;DHT22;52203;51.998;5.140;2022-09-20T20:29:43;6.59;118.99
65559;DHT22;52203;51.998;5.140;2022-09-20T20:32:09;6.58;118.99
65559;DHT22;52203;51.998;5.140;2022-09-20T20:34:34;6.60;118.99
65559;DHT22;52203;51.998;5.140;2022-09-20T20:37:02;6.59;118.99
65559;DHT22;52203;51.998;5.140;2022-09-20T20:39:27;6.56;118.99
65559;DHT22;52203;51.998;5.140;2022-09-20T20:41:54;6.56;118.99
65559;DHT22;52203;51.998;5.140;2022-09-20T20:44:19;6.57;118.99
65559;DHT22;52203;51.998;5.140;2022-09-20T20:46:47;6.59;118.99
65559;DHT22;52203;51.998;5.140;2022-09-20T20:49:12;6.56;118.99
65559;DHT22;52203;51.998;5.140;2022-09-20T20:51:38;6.55;118.99
65559;DHT22;52203;51.998;5.140;2022-09-20T20:54:04;6.50;118.99